Terminal Aerodrome Forecast
Issued by NWS Sioux Falls, SD

Home | Current Version | Previous Version | Text Only | Print | Product List | Glossary On
Versions: 1 2 3 4 5 6 7 8 9 10 11 12 13 14 15 16 17 18 19 20
000
FTUS43 KFSD 241956 AAA
TAFHON
TAF AMD
KHON 241956Z 2420/2518 02016KT P6SM SCT015 SCT150
     FM250200 03006KT P6SM OVC015
     FM250900 35003KT 3SM BR BKN007
     FM251500 09006KT P6SM FEW010=

USA.gov is the U.S. government's official web portal to all federal, state and local government web resources and services.